Terminal Aerodrome Forecast
Issued by NWS

Home | Current Version | Previous Version | Graphics & Text | Print | Product List | Glossary Off
Versions: 1 2 3 4 5 6 7 8 9 10 11 12 13 14 15 16 17 18 19 20 21 22 23 24 25

706
FTUS43 KGRB 241135
TAFRHI
TAF
KRHI 241135Z 2412/2512 22005KT P6SM SCT040 BKN080
      TEMPO 2412/2415 5SM -SHRA BKN040
     FM241600 23008G15KT P6SM BKN050
     FM242000 26005KT P6SM VCTS BKN050CB
     FM250000 32003KT P6SM SCT035 BKN250
     FM250400 08003KT 4SM BR SCT008 BKN250
      TEMPO 2507/2511 1SM BR BKN005=

USA.gov is the U.S. government's official web portal to all federal, state and local government web resources and services.